Time;durP1;ratioP1;P1;durP2;ratioP2;P2;SDS_P1;SDS_P2;PMS_P1;PMS_P2;Temp;Humidity;BMP_temperature;BMP_pressure;BME280_temperature;BME280_humidity;BME280_pressure;Samples;Min_cycle;Max_cycle;Signal;HPM_P1;HPM_P2
2022/10/10 00:00:41;;;;;;;11.68;9.63;;;;;;;13.46;100.00;95178.69;5072572;28;20251;-62
2022/10/10 00:03:07;;;;;;;13.27;10.30;;;;;;;13.39;100.00;95178.41;5054532;28;20212;-62
2022/10/10 00:05:35;;;;;;;13.70;10.50;;;;;;;13.36;100.00;95181.25;5072545;28;20313;-63
2022/10/10 00:08:00;;;;;;;13.88;10.85;;;;;;;13.23;100.00;95180.69;5072362;28;20184;-65
2022/10/10 00:10:26;;;;;;;12.63;11.33;;;;;;;13.19;100.00;95181.13;5054474;28;20221;-64
2022/10/10 00:12:51;;;;;;;12.02;10.73;;;;;;;13.33;100.00;95188.38;5072447;28;20200;-65
2022/10/10 00:15:17;;;;;;;16.10;10.43;;;;;;;13.38;100.00;95194.69;5072716;28;20265;-62
2022/10/10 00:17:43;;;;;;;13.93;10.57;;;;;;;13.39;100.00;95198.06;5072586;28;20181;-63
2022/10/10 00:20:18;;;;;;;14.63;10.45;;;;;;;13.28;100.00;95188.78;5071383;28;20678;-62
2022/10/10 00:22:44;;;;;;;19.98;10.18;;;;;;;13.28;100.00;95195.63;5054400;28;20837;-63
2022/10/10 00:25:10;;;;;;;12.77;9.97;;;;;;;13.29;100.00;95184.47;5053982;28;20225;-60
2022/10/10 00:27:37;;;;;;;13.55;9.57;;;;;;;13.20;100.00;95178.41;5072216;28;20185;-64
2022/10/10 00:30:04;;;;;;;11.23;9.63;;;;;;;13.17;100.00;95183.78;5072507;28;20220;-63
2022/10/10 00:32:30;;;;;;;11.85;9.63;;;;;;;13.31;100.00;95190.25;5053922;28;20283;-62
2022/10/10 00:34:55;;;;;;;11.23;10.03;;;;;;;13.34;100.00;95188.25;5072288;28;20291;-61
2022/10/10 00:37:21;;;;;;;10.55;9.40;;;;;;;13.37;100.00;95185.41;5072252;28;20201;-64
2022/10/10 00:39:46;;;;;;;10.30;9.20;;;;;;;13.42;100.00;95187.56;5054144;28;20262;-64
2022/10/10 00:42:14;;;;;;;12.30;9.30;;;;;;;13.38;100.00;95191.31;5054080;28;20189;-65
2022/10/10 00:44:43;;;;;;;12.20;9.15;;;;;;;13.25;100.00;95178.03;5054101;28;20220;-63
2022/10/10 00:47:08;;;;;;;11.10;8.88;;;;;;;13.35;100.00;95194.16;5072043;28;20193;-65
2022/10/10 00:49:37;;;;;;;12.70;10.03;;;;;;;13.33;100.00;95181.50;5071784;28;20216;-62
2022/10/10 00:52:04;;;;;;;11.23;9.87;;;;;;;13.32;100.00;95187.56;5071799;28;20192;-64
2022/10/10 00:54:32;;;;;;;11.23;8.63;;;;;;;13.42;100.00;95183.28;5072092;28;20228;-63
2022/10/10 00:57:03;;;;;;;9.65;8.50;;;;;;;13.44;100.00;95196.72;5071752;28;20188;-61
2022/10/10 00:59:33;;;;;;;10.23;8.32;;;;;;;13.45;100.00;95197.53;5071818;28;20240;-61
2022/10/10 01:01:59;;;;;;;9.50;8.53;;;;;;;13.58;100.00;95194.69;5071673;28;20188;-63
2022/10/10 01:04:31;;;;;;;10.20;9.13;;;;;;;13.56;100.00;95194.00;5053830;28;20686;-65
2022/10/10 01:06:57;;;;;;;11.13;9.43;;;;;;;13.59;100.00;95198.88;5071841;28;20774;-62
2022/10/10 01:09:22;;;;;;;9.45;8.32;;;;;;;13.73;100.00;95213.78;5053803;28;20530;-64
2022/10/10 01:11:59;;;;;;;9.65;8.55;;;;;;;13.89;100.00;95224.28;5053761;28;20686;-63
2022/10/10 01:14:24;;;;;;;10.30;9.15;;;;;;;13.78;100.00;95204.78;5071610;28;20313;-63
2022/10/10 01:17:31;;;;;;;10.43;8.88;;;;;;;13.67;100.00;95222.00;5071596;28;20185;-62
2022/10/10 01:20:09;;;;;;;11.55;9.07;;;;;;;13.69;100.00;95226.03;5015319;28;20208;-63
2022/10/10 01:23:05;;;;;;;11.98;8.60;;;;;;;13.57;100.00;95216.91;5053393;28;20702;-64
2022/10/10 01:26:08;;;;;;;13.77;8.52;;;;;;;13.58;100.00;95227.91;5053618;28;20223;-64
2022/10/10 01:28:39;;;;;;;11.02;8.48;;;;;;;13.50;100.00;95220.91;5027641;28;20278;-64
2022/10/10 01:31:09;;;;;;;11.18;8.95;;;;;;;13.44;100.00;95219.69;5070870;28;20181;-64
2022/10/10 01:33:53;;;;;;;10.38;8.38;;;;;;;13.14;100.00;95196.00;5080766;22;20208;-64
2022/10/10 01:36:28;;;;;;;10.50;9.02;;;;;;;13.12;100.00;95191.03;5070391;28;20299;-62
2022/10/10 01:39:05;;;;;;;12.13;8.75;;;;;;;13.13;100.00;95200.28;5066491;28;20236;-64
2022/10/10 01:41:40;;;;;;;13.70;8.93;;;;;;;13.05;100.00;95189.94;5051138;28;20650;-63
2022/10/10 01:44:05;;;;;;;15.60;9.63;;;;;;;12.98;100.00;95199.03;5050772;28;20303;-63
2022/10/10 01:46:31;;;;;;;11.67;9.50;;;;;;;13.03;100.00;95189.22;5050931;28;20269;-63
2022/10/10 01:48:58;;;;;;;16.30;10.23;;;;;;;12.89;100.00;95186.25;5033160;28;20661;-62
2022/10/10 01:52:02;;;;;;;14.53;9.73;;;;;;;12.97;100.00;95181.31;5033138;28;20193;-61
2022/10/10 01:54:57;;;;;;;13.53;10.10;;;;;;;12.98;100.00;95188.84;5050805;28;20223;-64
2022/10/10 01:57:44;;;;;;;12.13;9.80;;;;;;;12.92;100.00;95189.34;5050993;28;20212;-62
2022/10/10 02:00:13;;;;;;;11.60;10.27;;;;;;;12.92;100.00;95185.97;5033042;28;20703;-63
2022/10/10 02:02:56;;;;;;;12.47;9.83;;;;;;;12.84;100.00;95188.38;5050634;28;20204;-64
2022/10/10 02:05:33;;;;;;;11.70;9.63;;;;;;;12.80;100.00;95190.41;5051345;28;20221;-62
2022/10/10 02:08:05;;;;;;;13.23;10.03;;;;;;;12.91;100.00;95194.59;5050643;28;20185;-61
2022/10/10 02:10:34;;;;;;;12.43;10.13;;;;;;;12.95;100.00;95201.84;5032989;28;20229;-60
2022/10/10 02:13:01;;;;;;;11.98;9.73;;;;;;;12.98;100.00;95204.16;5032950;28;20185;-63
2022/10/10 02:15:33;;;;;;;10.63;9.23;;;;;;;12.89;100.00;95199.03;5049433;28;20213;-61
2022/10/10 02:18:01;;;;;;;13.80;10.23;;;;;;;12.77;100.00;95205.13;5050748;28;20754;-62
2022/10/10 02:20:29;;;;;;;11.57;9.90;;;;;;;12.79;100.00;95205.81;5032830;28;20205;-64
2022/10/10 02:22:55;;;;;;;11.98;9.63;;;;;;;12.75;100.00;95199.34;5050439;28;20213;-62
2022/10/10 02:25:26;;;;;;;11.87;10.00;;;;;;;12.69;100.00;95205.78;5032371;28;20316;-62
2022/10/10 02:28:00;;;;;;;9.73;8.65;;;;;;;12.64;100.00;95202.84;5050455;28;20639;-64
2022/10/10 02:30:25;;;;;;;12.93;10.30;;;;;;;12.45;100.00;95205.28;5051188;28;20217;-64
2022/10/10 02:32:58;;;;;;;9.80;8.80;;;;;;;12.51;100.00;95205.59;5049549;28;20188;-61
2022/10/10 02:35:29;;;;;;;10.30;9.20;;;;;;;12.63;100.00;95203.75;5049673;28;20236;-63
2022/10/10 02:37:58;;;;;;;10.80;9.70;;;;;;;12.64;100.00;95202.84;5050392;28;20181;-64
2022/10/10 02:40:27;;;;;;;13.43;9.77;;;;;;;12.62;100.00;95207.25;5050616;28;20590;-64
2022/10/10 02:42:56;;;;;;;13.57;9.97;;;;;;;12.65;100.00;95210.34;5051410;28;20218;-64
2022/10/10 02:45:22;;;;;;;12.63;8.83;;;;;;;12.67;100.00;95205.09;5053966;28;20702;-64
2022/10/10 02:47:49;;;;;;;10.33;9.23;;;;;;;12.61;100.00;95208.19;5035920;28;20200;-61
2022/10/10 02:50:15;;;;;;;12.35;9.75;;;;;;;12.68;100.00;95206.75;5054355;28;20273;-64
2022/10/10 02:52:40;;;;;;;11.07;9.97;;;;;;;12.74;100.00;95208.78;5053644;28;20658;-64
2022/10/10 02:55:06;;;;;;;10.63;9.13;;;;;;;12.68;100.00;95199.88;5053507;28;20205;-61
2022/10/10 02:57:31;;;;;;;12.30;9.47;;;;;;;12.77;100.00;95212.78;5053826;28;20182;-64
2022/10/10 02:59:57;;;;;;;11.03;9.07;;;;;;;12.84;100.00;95219.00;5053663;28;20297;-61
2022/10/10 03:02:22;;;;;;;10.98;9.32;;;;;;;12.77;100.00;95220.44;5053673;28;20610;-63
2022/10/10 03:04:48;;;;;;;10.60;9.30;;;;;;;12.69;100.00;95213.44;5053298;28;20225;-60
2022/10/10 03:07:13;;;;;;;18.57;9.13;;;;;;;12.68;100.00;95209.28;5053885;28;20228;-61
2022/10/10 03:09:39;;;;;;;10.67;9.43;;;;;;;12.67;100.00;95207.66;5053247;28;20205;-61
2022/10/10 03:12:04;;;;;;;11.07;9.50;;;;;;;12.71;100.00;95208.19;5053377;28;20185;-63
2022/10/10 03:14:30;;;;;;;15.07;9.30;;;;;;;12.72;100.00;95215.75;5053484;28;20742;-62
2022/10/10 03:16:55;;;;;;;13.00;9.60;;;;;;;12.77;100.00;95217.88;5053440;28;20212;-61
2022/10/10 03:19:20;;;;;;;11.67;9.63;;;;;;;12.88;100.00;95228.00;5053463;28;20209;-63
2022/10/10 03:21:46;;;;;;;10.63;8.80;;;;;;;12.84;100.00;95230.03;5053262;28;20182;-61
2022/10/10 03:24:12;;;;;;;12.17;10.40;;;;;;;12.77;100.00;95220.44;5053323;28;20209;-62
2022/10/10 03:26:37;;;;;;;10.73;9.60;;;;;;;12.70;100.00;95219.34;5053169;28;20546;-63
2022/10/10 03:29:03;;;;;;;14.35;9.55;;;;;;;12.73;100.00;95222.44;5053024;28;20288;-64
2022/10/10 03:31:29;;;;;;;14.77;10.23;;;;;;;12.83;100.00;95232.69;5053164;28;20185;-62
2022/10/10 03:33:55;;;;;;;12.55;10.07;;;;;;;12.80;100.00;95225.31;5052669;28;20213;-61
2022/10/10 03:36:21;;;;;;;12.43;10.13;;;;;;;12.88;100.00;95231.38;5053078;28;20196;-62
2022/10/10 03:38:54;;;;;;;13.17;10.40;;;;;;;12.90;100.00;95237.16;5053038;28;20209;-60
2022/10/10 03:41:19;;;;;;;11.40;10.13;;;;;;;12.96;100.00;95230.72;5034989;28;20703;-61
2022/10/10 03:43:44;;;;;;;12.47;9.87;;;;;;;12.81;100.00;95212.41;5052764;28;20213;-62
2022/10/10 03:46:10;;;;;;;11.30;10.03;;;;;;;12.85;100.00;95212.94;5035004;28;20268;-61
2022/10/10 03:48:35;;;;;;;11.57;10.18;;;;;;;12.90;100.00;95233.78;5051634;28;20192;-61
2022/10/10 03:51:01;;;;;;;14.30;10.03;;;;;;;12.88;100.00;95218.63;5052704;28;20582;-62
2022/10/10 03:53:26;;;;;;;14.63;10.75;;;;;;;12.98;100.00;95227.13;5034737;28;20213;-61
2022/10/10 03:55:53;;;;;;;10.53;9.43;;;;;;;13.06;100.00;95227.31;5051415;28;20260;-64
2022/10/10 03:58:18;;;;;;;12.07;10.73;;;;;;;13.00;100.00;95227.78;5052655;28;20709;-64
2022/10/10 04:00:44;;;;;;;14.53;11.53;;;;;;;13.11;100.00;95235.34;5052455;28;20201;-61
2022/10/10 04:03:09;;;;;;;11.77;10.57;;;;;;;13.15;100.00;95241.81;5034431;28;20248;-62
2022/10/10 04:05:36;;;;;;;13.20;11.00;;;;;;;13.14;100.00;95236.84;5034663;28;20300;-64
2022/10/10 04:08:03;;;;;;;12.93;10.50;;;;;;;13.14;100.00;95239.41;5034511;28;20213;-63
2022/10/10 04:10:28;;;;;;;15.85;11.57;;;;;;;13.11;100.00;95235.34;5052592;28;20588;-62
2022/10/10 04:12:54;;;;;;;14.87;12.37;;;;;;;13.03;100.00;95247.16;5052331;28;20639;-65
2022/10/10 04:15:19;;;;;;;22.58;15.82;;;;;;;12.81;100.00;95232.81;5052293;28;20209;-62
2022/10/10 04:17:45;;;;;;;18.15;13.75;;;;;;;12.90;100.00;95236.34;5052297;28;20185;-63
2022/10/10 04:20:10;;;;;;;22.08;14.73;;;;;;;12.90;100.00;95247.38;5052613;28;20209;-65
2022/10/10 04:22:35;;;;;;;16.55;13.73;;;;;;;13.16;100.00;95268.97;5052213;28;20662;-60
2022/10/10 04:25:01;;;;;;;16.57;12.77;;;;;;;12.98;100.00;95255.19;5052466;28;20214;-63
2022/10/10 04:27:27;;;;;;;14.83;12.50;;;;;;;13.02;100.00;95259.09;5034315;28;20220;-61
2022/10/10 04:29:52;;;;;;;17.90;11.20;;;;;;;12.77;100.00;95251.06;5052310;28;20209;-65
2022/10/10 04:32:18;;;;;;;14.93;10.33;;;;;;;12.74;100.00;95251.34;5052343;28;20209;-64
2022/10/10 04:34:43;;;;;;;15.00;12.33;;;;;;;12.72;100.00;95261.66;5052124;28;20246;-60
2022/10/10 04:37:08;;;;;;;13.87;9.77;;;;;;;12.77;100.00;95262.06;5051975;28;20178;-65
2022/10/10 04:39:34;;;;;;;10.83;9.73;;;;;;;12.77;100.00;95256.16;5052067;28;20201;-63
2022/10/10 04:41:59;;;;;;;12.38;9.88;;;;;;;12.76;100.00;95267.31;5034134;28;20198;-63
2022/10/10 04:44:25;;;;;;;11.83;9.83;;;;;;;12.67;100.00;95261.22;5051980;28;20221;-62
2022/10/10 04:46:50;;;;;;;12.90;9.80;;;;;;;12.50;100.00;95239.66;5052151;28;20222;-62
2022/10/10 04:49:16;;;;;;;13.67;9.07;;;;;;;12.57;100.00;95257.81;5052013;28;20210;-65
2022/10/10 04:51:41;;;;;;;11.77;10.00;;;;;;;12.47;100.00;95249.31;5050389;28;20267;-62
2022/10/10 04:54:06;;;;;;;12.97;9.57;;;;;;;12.28;100.00;95231.38;5051853;28;20201;-64
2022/10/10 04:56:32;;;;;;;15.80;9.13;;;;;;;12.77;100.00;95234.00;5092256;22;20311;-62
2022/10/10 04:58:57;;;;;;;12.37;9.27;;;;;;;12.43;100.00;95248.78;5091932;28;20196;-61
2022/10/10 05:01:23;;;;;;;12.47;8.73;;;;;;;12.55;100.00;95259.69;5091802;28;20621;-62
2022/10/10 05:03:48;;;;;;;12.30;9.20;;;;;;;12.58;100.00;95262.78;5091679;28;20249;-63
2022/10/10 05:06:13;;;;;;;13.13;10.50;;;;;;;12.75;100.00;95263.94;5091797;28;20195;-63
2022/10/10 05:08:45;;;;;;;14.00;9.20;;;;;;;12.99;100.00;95299.38;5091482;28;20211;-62
2022/10/10 05:11:11;;;;;;;21.30;11.30;;;;;;;13.00;100.00;95299.25;5091841;28;20198;-63
2022/10/10 05:13:36;;;;;;;14.53;10.93;;;;;;;12.81;100.00;95278.75;5073396;28;20176;-62
2022/10/10 05:16:02;;;;;;;15.60;10.90;;;;;;;12.74;100.00;95264.09;5091950;28;20207;-63
2022/10/10 05:18:28;;;;;;;15.50;10.93;;;;;;;12.99;100.00;95282.31;5091741;28;20190;-63
2022/10/10 05:20:53;;;;;;;76.10;44.60;;;;;;;12.96;100.00;95277.47;5073286;28;20184;-64
2022/10/10 05:23:18;;;;;;;13.87;10.80;;;;;;;12.97;100.00;95291.06;5091505;28;20533;-63
2022/10/10 05:25:49;;;;;;;11.80;10.07;;;;;;;13.05;100.00;95297.13;5091727;28;20215;-63
2022/10/10 05:28:14;;;;;;;15.73;10.93;;;;;;;12.96;100.00;95276.66;5091472;28;20710;-63
2022/10/10 05:30:40;;;;;;;12.43;9.83;;;;;;;13.07;100.00;95299.59;5091597;28;20295;-62
2022/10/10 05:33:05;;;;;;;15.83;9.53;;;;;;;13.22;100.00;95334.84;5089979;28;20274;-62
2022/10/10 05:35:31;;;;;;;18.47;11.13;;;;;;;13.12;100.00;95312.75;5089856;28;20218;-62
2022/10/10 05:37:57;;;;;;;12.75;10.07;;;;;;;13.08;100.00;95298.63;5090641;28;20222;-64
2022/10/10 05:40:23;;;;;;;11.45;8.90;;;;;;;13.17;100.00;95297.88;5089725;28;20215;-62
2022/10/10 05:42:48;;;;;;;11.90;8.50;;;;;;;13.28;100.00;95318.19;5091374;28;20187;-63
2022/10/10 05:45:14;;;;;;;12.03;8.80;;;;;;;13.25;100.00;95336.34;5091245;28;20211;-62
2022/10/10 05:47:39;;;;;;;12.77;9.23;;;;;;;13.17;100.00;95301.22;5091297;28;20184;-64
2022/10/10 05:50:06;;;;;;;11.93;8.20;;;;;;;13.36;100.00;95319.16;5091288;28;20204;-61
2022/10/10 05:52:34;;;;;;;15.37;8.63;;;;;;;13.42;100.00;95328.84;5091274;28;20193;-61
2022/10/10 05:54:59;;;;;;;13.43;9.30;;;;;;;13.52;100.00;95336.53;5091049;28;20629;-63
2022/10/10 05:57:24;;;;;;;13.57;9.27;;;;;;;13.59;100.00;95357.25;5091184;28;20261;-62
2022/10/10 05:59:50;;;;;;;13.13;10.57;;;;;;;13.36;100.00;95323.44;5091081;28;20571;-64
2022/10/10 06:02:15;;;;;;;16.67;11.02;;;;;;;13.46;100.00;95337.88;5072791;28;20580;-63
2022/10/10 06:04:41;;;;;;;19.90;10.77;;;;;;;13.55;100.00;95343.94;5090975;28;20204;-63
2022/10/10 06:07:08;;;;;;;16.52;11.55;;;;;;;13.52;100.00;95318.66;5091113;28;20294;-64
2022/10/10 06:09:34;;;;;;;18.55;12.55;;;;;;;13.44;100.00;95336.38;5072646;28;20220;-62
2022/10/10 06:11:59;;;;;;;21.63;12.65;;;;;;;13.41;100.00;95332.34;5090576;28;20176;-62
2022/10/10 06:14:25;;;;;;;16.88;12.88;;;;;;;13.48;100.00;95337.72;5090665;28;20208;-60
2022/10/10 06:16:50;;;;;;;21.38;13.35;;;;;;;13.56;100.00;95334.53;5091023;28;20186;-65
2022/10/10 06:19:16;;;;;;;18.67;13.48;;;;;;;13.68;100.00;95333.47;5094574;28;20218;-64
2022/10/10 06:21:41;;;;;;;21.67;14.80;;;;;;;13.52;100.00;95292.28;5095601;28;20176;-62
2022/10/10 06:24:07;;;;;;;25.67;15.52;;;;;;;13.75;100.00;95332.00;5095792;28;20219;-63
2022/10/10 06:26:33;;;;;;;25.25;15.15;;;;;;;13.85;100.00;95351.53;5093509;28;20204;-63
2022/10/10 06:28:58;;;;;;;21.85;15.75;;;;;;;13.92;100.00;95372.25;5066794;22;20323;-64
2022/10/10 06:31:24;;;;;;;27.02;16.35;;;;;;;13.98;100.00;95348.72;5093714;28;20200;-61
2022/10/10 06:33:52;;;;;;;26.30;16.45;;;;;;;13.99;100.00;95355.44;5094141;28;20199;-61
2022/10/10 06:36:17;;;;;;;23.20;16.55;;;;;;;13.86;100.00;95319.09;5093848;28;20199;-61
2022/10/10 06:38:44;;;;;;;26.67;15.63;;;;;;;14.07;100.00;95333.41;5094186;28;20203;-63
2022/10/10 06:41:11;;;;;;;29.52;16.77;;;;;;;14.23;100.00;95307.28;5094241;28;20228;-63
2022/10/10 06:43:36;;;;;;;24.85;15.98;;;;;;;14.29;100.00;95328.03;5093731;28;20208;-63
2022/10/10 06:46:02;;;;;;;19.85;16.67;;;;;;;14.40;100.00;95333.94;5093434;28;20298;-60
2022/10/10 06:48:33;;;;;;;28.52;16.38;;;;;;;14.41;100.00;95340.66;5093812;28;20188;-61
2022/10/10 06:51:07;;;;;;;24.55;16.10;;;;;;;14.48;100.00;95350.25;5075805;28;20223;-63
2022/10/10 06:53:34;;;;;;;25.98;16.65;;;;;;;14.64;100.00;95373.53;5093791;28;20273;-63
2022/10/10 06:56:00;;;;;;;27.05;16.42;;;;;;;14.87;100.00;95420.09;5093637;28;20729;-64
2022/10/10 06:58:27;;;;;;;24.60;17.02;;;;;;;14.79;100.00;95371.31;5075616;28;20705;-61
2022/10/10 07:01:01;;;;;;;22.80;15.52;;;;;;;14.84;100.00;95371.72;5093709;28;20202;-63
2022/10/10 07:03:28;;;;;;;27.25;15.80;;;;;;;15.14;100.00;95426.13;5093915;28;20208;-60
2022/10/10 07:05:56;;;;;;;21.58;15.25;;;;;;;15.07;100.00;95386.63;5076400;28;20200;-62
2022/10/10 07:08:23;;;;;;;18.75;13.98;;;;;;;14.96;100.00;95371.44;5093450;28;20181;-62
2022/10/10 07:10:48;;;;;;;26.10;15.57;;;;;;;15.30;100.00;95424.72;5093359;28;20615;-62
2022/10/10 07:13:14;;;;;;;23.30;13.93;;;;;;;15.27;100.00;95405.28;5093318;28;20282;-62
2022/10/10 07:15:40;;;;;;;20.23;15.05;;;;;;;15.15;100.00;95381.63;5093540;28;20242;-61
2022/10/10 07:18:06;;;;;;;24.27;15.45;;;;;;;15.23;100.00;95385.25;5093361;28;20187;-60
2022/10/10 07:20:33;;;;;;;21.50;15.20;;;;;;;15.28;100.00;95371.06;5093184;28;20215;-60
2022/10/10 07:22:59;;;;;;;22.60;15.18;;;;;;;15.21;100.00;95356.41;5075398;28;20243;-65
2022/10/10 07:25:24;;;;;;;29.60;14.25;;;;;;;15.48;100.00;95369.25;5094004;28;20239;-61
2022/10/10 07:27:50;;;;;;;24.65;14.65;;;;;;;15.66;100.00;95370.09;5093173;28;20350;-63
2022/10/10 07:30:16;;;;;;;19.83;13.85;;;;;;;15.80;100.00;95392.69;5093328;28;20318;-62
2022/10/10 07:32:42;;;;;;;23.80;13.80;;;;;;;15.98;100.00;95422.56;5093298;28;20184;-62
2022/10/10 07:35:09;;;;;;;22.10;14.73;;;;;;;16.25;100.00;95467.91;5093408;28;20215;-61
2022/10/10 07:37:34;;;;;;;18.13;12.82;;;;;;;16.24;100.00;95440.63;5075017;28;20265;-60
2022/10/10 07:40:00;;;;;;;17.17;13.10;;;;;;;16.29;100.00;95453.84;5093238;28;20200;-64
2022/10/10 07:42:25;;;;;;;16.30;12.93;;;;;;;16.37;100.00;95476.22;5093274;28;20672;-63
2022/10/10 07:44:51;;;;;;;23.20;13.48;;;;;;;16.24;100.00;95443.19;5093310;28;20215;-64
2022/10/10 07:47:16;;;;;;;25.10;12.07;;;;;;;16.38;100.00;95463.22;5091431;28;20192;-61
2022/10/10 07:49:42;;;;;;;19.80;12.68;;;;;;;16.33;100.00;95434.63;5090860;28;20204;-60
2022/10/10 07:52:07;;;;;;;20.48;12.18;;;;;;;16.34;100.00;95405.44;5074489;28;20203;-61
2022/10/10 07:54:32;;;;;;;20.92;11.48;;;;;;;16.45;100.00;95432.66;5093282;28;20692;-64
2022/10/10 07:56:58;;;;;;;15.02;12.27;;;;;;;16.51;100.00;95391.84;5093036;28;20189;-62
2022/10/10 07:59:24;;;;;;;23.10;11.57;;;;;;;16.75;100.00;95433.13;5092656;28;20222;-60
2022/10/10 08:01:50;;;;;;;24.45;11.88;;;;;;;16.74;100.00;95438.41;5074510;28;20233;-61
2022/10/10 08:04:17;;;;;;;21.55;10.85;;;;;;;16.95;100.00;95441.47;5092492;28;20265;-62
2022/10/10 08:06:42;;;;;;;18.98;10.27;;;;;;;16.96;100.00;95398.59;5074683;28;20250;-60
2022/10/10 08:09:08;;;;;;;19.52;10.40;;;;;;;16.89;100.00;95410.44;5074397;28;20207;-61
2022/10/10 08:11:34;;;;;;;16.73;9.60;;;;;;;16.95;100.00;95415.00;5092643;28;20192;-60
2022/10/10 08:13:59;;;;;;;20.17;10.00;;;;;;;17.08;100.00;95436.75;5093408;28;20196;-61
2022/10/10 08:16:25;;;;;;;22.10;10.10;;;;;;;17.25;100.00;95438.47;5092329;28;20203;-61
2022/10/10 08:18:50;;;;;;;13.95;9.77;;;;;;;17.41;100.00;95458.34;5092688;28;20203;-64
2022/10/10 08:21:17;;;;;;;21.15;9.93;;;;;;;17.44;100.00;95443.41;5092362;28;20267;-64
2022/10/10 08:23:42;;;;;;;13.55;8.57;;;;;;;17.52;100.00;95478.69;5092137;28;20219;-64
2022/10/10 08:26:10;;;;;;;15.63;8.82;;;;;;;17.70;100.00;95491.47;5074031;28;20188;-64
2022/10/10 08:28:37;;;;;;;12.13;8.65;;;;;;;17.91;100.00;95515.88;5092627;28;20188;-63
2022/10/10 08:31:14;;;;;;;12.18;9.50;;;;;;;18.07;100.00;95502.28;5091871;28;20230;-64
2022/10/10 08:33:41;;;;;;;15.10;9.13;;;;;;;18.05;100.00;95529.94;5073130;28;20352;-60
2022/10/10 08:36:16;;;;;;;14.88;8.50;;;;;;;18.21;100.00;95558.31;5089974;28;20198;-61
2022/10/10 08:38:42;;;;;;;14.43;8.05;;;;;;;18.33;100.00;95523.63;5092249;28;20215;-60
2022/10/10 08:41:10;;;;;;;14.15;8.18;;;;;;;18.37;100.00;95518.00;5092770;28;20179;-63
2022/10/10 08:43:45;;;;;;;11.15;7.53;;;;;;;18.38;100.00;95578.81;5073716;28;20296;-63
2022/10/10 08:46:39;;;;;;;13.07;6.88;;;;;;;18.54;100.00;95588.44;5091917;28;20224;-64
2022/10/10 08:49:35;;;;;;;9.57;7.18;;;;;;;18.62;100.00;95569.63;5091503;28;20223;-60
2022/10/10 08:52:04;;;;;;;15.73;7.28;;;;;;;18.74;100.00;95561.47;5091947;28;20188;-63
2022/10/10 08:54:32;;;;;;;13.23;7.15;;;;;;;18.72;100.00;95585.75;5092278;28;20685;-63
2022/10/10 08:56:59;;;;;;;8.18;7.05;;;;;;;18.88;99.66;95594.34;5073565;28;20191;-63
2022/10/10 08:59:43;;;;;;;10.38;6.70;;;;;;;18.89;96.48;95634.59;5091589;28;20674;-60
2022/10/10 09:02:35;;;;;;;10.43;5.60;;;;;;;18.74;97.31;95601.88;5091802;28;20219;-60
2022/10/10 09:05:00;;;;;;;8.18;6.10;;;;;;;18.92;97.42;95602.56;5080457;28;20224;-61
2022/10/10 09:07:58;;;;;;;9.45;6.05;;;;;;;19.02;98.32;95588.56;5091648;28;20271;-61
2022/10/10 09:10:44;;;;;;;7.30;6.28;;;;;;;19.12;98.37;95583.25;5087539;28;20680;-59
2022/10/10 09:13:22;;;;;;;8.95;6.35;;;;;;;19.27;95.34;95641.78;5092305;28;20249;-61
2022/10/10 09:16:25;;;;;;;8.00;6.00;;;;;;;19.43;95.34;95641.06;5091483;28;20295;-59
2022/10/10 09:19:12;;;;;;;6.07;5.47;;;;;;;19.40;93.07;95689.53;5016439;28;20277;-61
2022/10/10 09:21:40;;;;;;;12.25;6.35;;;;;;;19.44;91.88;95686.50;5089851;28;20211;-59
2022/10/10 09:24:18;;;;;;;6.97;5.38;;;;;;;19.33;92.35;95673.91;5091289;28;20212;-60
2022/10/10 09:26:57;;;;;;;7.72;6.32;;;;;;;19.23;92.54;95661.13;5091555;28;20241;-60
2022/10/10 09:29:41;;;;;;;6.93;5.45;;;;;;;19.09;93.52;95641.09;5091908;28;20753;-63
2022/10/10 09:32:24;;;;;;;6.03;5.38;;;;;;;19.11;92.84;95646.09;5091699;28;20269;-63
2022/10/10 09:34:58;;;;;;;8.40;5.07;;;;;;;19.34;90.83;95680.69;5092339;28;20630;-63
2022/10/10 09:37:31;;;;;;;8.23;5.47;;;;;;;19.34;86.68;95654.88;5099551;22;20314;-63
2022/10/10 09:40:16;;;;;;;7.15;5.05;;;;;;;19.46;77.87;95632.97;5091113;28;20204;-63
2022/10/10 09:42:43;;;;;;;7.60;5.90;;;;;;;19.45;75.99;95654.59;5089948;28;20664;-62
2022/10/10 09:45:18;;;;;;;6.60;5.80;;;;;;;19.40;74.14;95685.19;5088621;28;20212;-63
2022/10/10 09:47:46;;;;;;;7.43;5.45;;;;;;;19.17;77.55;95602.44;5089498;28;20214;-62
2022/10/10 09:50:15;;;;;;;6.93;5.85;;;;;;;19.31;77.52;95602.81;5091251;28;20208;-63
2022/10/10 09:52:43;;;;;;;8.73;5.82;;;;;;;19.17;76.31;95619.69;5092093;28;20188;-59
2022/10/10 09:55:33;;;;;;;9.52;5.63;;;;;;;19.35;74.75;95640.22;5073019;28;20651;-60
2022/10/10 09:58:13;;;;;;;8.32;5.88;;;;;;;19.19;75.60;95630.63;5073245;28;20199;-64
2022/10/10 10:00:39;;;;;;;13.88;5.93;;;;;;;19.13;75.97;95613.22;5091496;28;20211;-63
2022/10/10 10:03:08;;;;;;;9.95;6.18;;;;;;;19.25;75.26;95630.00;5090997;28;20196;-60
2022/10/10 10:05:34;;;;;;;8.77;5.43;;;;;;;19.27;74.26;95641.78;5090872;28;20292;-61
2022/10/10 10:07:59;;;;;;;11.75;5.68;;;;;;;19.39;74.82;95628.63;5091322;28;20188;-62
2022/10/10 10:10:26;;;;;;;9.23;5.63;;;;;;;19.40;75.35;95612.97;5090731;28;20591;-63
2022/10/10 10:12:53;;;;;;;9.77;6.18;;;;;;;19.43;75.94;95591.22;5091006;28;20180;-64
2022/10/10 10:15:23;;;;;;;8.68;5.57;;;;;;;19.37;77.81;95548.84;5072523;28;20224;-64
2022/10/10 10:18:18;;;;;;;8.48;5.53;;;;;;;19.29;76.09;95590.03;5091188;28;20588;-62
2022/10/10 10:20:46;;;;;;;7.63;4.90;;;;;;;19.38;73.32;95634.75;5071921;28;20325;-61
2022/10/10 10:23:23;;;;;;;9.40;5.72;;;;;;;19.42;72.12;95661.81;5072268;28;20216;-61
2022/10/10 10:25:59;;;;;;;6.63;4.45;;;;;;;19.57;72.53;95652.50;5090951;28;20199;-62
2022/10/10 10:28:25;;;;;;;10.15;5.15;;;;;;;19.55;71.68;95659.59;5090832;28;20199;-62
2022/10/10 10:30:54;;;;;;;5.78;5.13;;;;;;;19.56;72.30;95641.38;5090662;28;20192;-63
2022/10/10 10:33:25;;;;;;;8.00;5.80;;;;;;;19.68;72.21;95645.25;5091061;28;20192;-62
2022/10/10 10:35:53;;;;;;;7.13;5.15;;;;;;;19.76;74.37;95592.81;5090457;28;20190;-63
2022/10/10 10:38:31;;;;;;;6.47;4.75;;;;;;;19.82;72.26;95639.44;5072224;28;20335;-63
2022/10/10 10:41:18;;;;;;;5.18;4.68;;;;;;;19.98;70.56;95677.34;5089325;28;20273;-64
2022/10/10 10:44:08;;;;;;;7.47;4.88;;;;;;;19.98;71.18;95651.53;5090311;28;20243;-64
2022/10/10 10:46:34;;;;;;;73.82;11.23;;;;;;;19.88;71.67;95632.81;5090527;28;20256;-63
2022/10/10 10:49:18;;;;;;;7.35;4.90;;;;;;;19.94;72.32;95601.19;5090469;28;20204;-64
2022/10/10 10:51:56;;;;;;;6.13;4.60;;;;;;;19.76;68.92;95690.88;5090411;28;20188;-63
2022/10/10 10:54:39;;;;;;;6.32;5.28;;;;;;;19.56;70.32;95653.47;5090049;28;20207;-60
2022/10/10 10:57:34;;;;;;;7.20;4.85;;;;;;;19.53;70.30;95644.28;5090715;28;20189;-61
2022/10/10 11:00:08;;;;;;;5.28;4.65;;;;;;;19.56;70.96;95632.81;5089073;28;20692;-64
2022/10/10 11:02:38;;;;;;;5.22;4.70;;;;;;;19.44;70.10;95652.16;5088655;28;20188;-63
2022/10/10 11:05:36;;;;;;;6.70;4.85;;;;;;;19.33;70.32;95629.22;5092910;28;20265;-63
2022/10/10 11:08:31;;;;;;;11.38;5.20;;;;;;;19.21;70.36;95623.56;5075419;28;20199;-64
2022/10/10 11:11:27;;;;;;;5.22;4.47;;;;;;;19.24;70.53;95618.09;5092950;28;20206;-61
2022/10/10 11:13:53;;;;;;;7.25;4.90;;;;;;;19.25;70.38;95610.19;5075498;28;20681;-62
2022/10/10 11:16:32;;;;;;;6.05;4.13;;;;;;;19.33;70.63;95599.13;5093344;28;20180;-65
2022/10/10 11:19:24;;;;;;;8.63;4.32;;;;;;;19.32;70.97;95584.56;5093402;28;20212;-62
2022/10/10 11:21:59;;;;;;;4.90;4.40;;;;;;;19.29;71.13;95575.38;5093575;28;20230;-61
2022/10/10 11:24:29;;;;;;;5.22;4.72;;;;;;;19.25;72.49;95547.50;5075000;28;20227;-61
2022/10/10 11:26:59;;;;;;;9.45;4.93;;;;;;;19.21;70.83;95588.28;5093471;28;20663;-63
2022/10/10 11:29:46;;;;;;;11.13;4.55;;;;;;;19.23;69.53;95619.03;5093614;28;20590;-64